createdAt,value
2023-12-01T00:02:57.582Z,94601.34
2023-12-01T00:08:00.545Z,94609.75
2023-12-01T00:13:04.735Z,94608.97
2023-12-01T00:18:07.701Z,94594.16
2023-12-01T00:23:10.811Z,94608.44
2023-12-01T00:28:15.171Z,94623.06
2023-12-01T00:33:19.319Z,94638.13
2023-12-01T00:38:22.258Z,94631.97
2023-12-01T00:43:26.952Z,94631.47
2023-12-01T00:48:30.876Z,94629.84
2023-12-01T00:53:36.504Z,94623.97
2023-12-01T00:58:40.796Z,94615.88
2023-12-01T01:03:43.754Z,94614.00
2023-12-01T01:08:46.688Z,94620.16
2023-12-01T01:13:51.009Z,94646.69
2023-12-01T01:18:53.930Z,94661.59
2023-12-01T01:23:56.820Z,94669.97
2023-12-01T01:29:01.486Z,94680.28
2023-12-01T01:34:04.337Z,94677.91
2023-12-01T01:39:08.244Z,94676.31
2023-12-01T01:44:12.463Z,94660.41
2023-12-01T01:49:15.534Z,94672.00
2023-12-01T01:54:20.096Z,94665.00
2023-12-01T01:59:24.314Z,94668.81
2023-12-01T02:04:27.344Z,94670.72
2023-12-01T02:09:34.327Z,94680.69
2023-12-01T02:14:42.002Z,94671.81
2023-12-01T02:19:44.937Z,94658.63
2023-12-01T02:24:49.223Z,94648.13
2023-12-01T02:29:52.065Z,94644.31
2023-12-01T02:34:54.890Z,94649.72
2023-12-01T02:39:59.207Z,94641.91
2023-12-01T02:45:02.142Z,94648.13
2023-12-01T02:50:05.692Z,94636.84
2023-12-01T02:55:14.701Z,94631.75
2023-12-01T03:00:18.659Z,94640.63
2023-12-01T03:05:22.477Z,94640.63
2023-12-01T03:10:26.885Z,94647.13
2023-12-01T03:15:30.427Z,94640.16
2023-12-01T03:20:34.351Z,94656.63
2023-12-01T03:25:38.836Z,94652.03
2023-12-01T03:30:41.802Z,94658.56
2023-12-01T03:35:44.648Z,94650.75
2023-12-01T03:40:48.848Z,94657.25
2023-12-01T03:45:51.920Z,94642.94
2023-12-01T03:50:54.862Z,94637.56
2023-12-01T03:55:59.309Z,94650.75
2023-12-01T04:01:06.450Z,94644.88
2023-12-01T04:06:09.548Z,94647.06
2023-12-01T04:11:13.789Z,94652.16
2023-12-01T04:16:17.193Z,94655.16
2023-12-01T04:21:20.076Z,94659.16
2023-12-01T04:26:25.503Z,94659.44
2023-12-01T04:31:28.544Z,94668.63
2023-12-01T04:36:31.516Z,94667.84
2023-12-01T04:41:35.688Z,94674.84
2023-12-01T04:46:38.630Z,94662.75
2023-12-01T04:51:41.656Z,94662.75
2023-12-01T04:56:46.109Z,94670.03
2023-12-01T05:01:48.998Z,94688.16
2023-12-01T05:06:52.023Z,94690.84
2023-12-01T05:11:56.279Z,94693.53
2023-12-01T05:16:59.211Z,94704.63
2023-12-01T05:22:02.150Z,94695.72
2023-12-01T05:27:09.196Z,94706.53
2023-12-01T05:32:12.137Z,94697.94
2023-12-01T05:37:15.037Z,94702.56
2023-12-01T05:42:19.514Z,94702.84
2023-12-01T05:47:23.975Z,94704.22
2023-12-01T05:52:26.863Z,94712.78
2023-12-01T05:57:32.974Z,94698.31
2023-12-01T06:02:35.883Z,94720.00
2023-12-01T06:07:38.872Z,94722.22
2023-12-01T06:12:43.277Z,94715.50
2023-12-01T06:17:48.900Z,94725.31
2023-12-01T06:22:53.476Z,94735.31
2023-12-01T06:28:00.807Z,94734.50
2023-12-01T06:33:05.047Z,94730.22
2023-12-01T06:38:08.910Z,94729.91
2023-12-01T06:43:13.747Z,94733.81
2023-12-01T06:48:16.656Z,94739.22
2023-12-01T06:53:20.400Z,94745.38
2023-12-01T06:58:24.607Z,94726.31
2023-12-01T07:03:31.092Z,94742.19
2023-12-01T07:08:34.019Z,94736.09
2023-12-01T07:13:38.787Z,94749.59
2023-12-01T07:18:41.743Z,94739.81
2023-12-01T07:23:45.579Z,94737.50
2023-12-01T07:28:49.866Z,94734.97
2023-12-01T07:33:52.800Z,94739.78
2023-12-01T07:38:55.820Z,94743.25
2023-12-01T07:44:01.478Z,94746.28
2023-12-01T07:49:09.216Z,94749.69
2023-12-01T07:54:12.680Z,94748.56
2023-12-01T07:59:17.036Z,94743.69
2023-12-01T08:04:20.264Z,94742.28
2023-12-01T08:09:23.212Z,94735.66
2023-12-01T08:14:27.578Z,94741.22
2023-12-01T08:19:30.644Z,94747.06
2023-12-01T08:24:33.968Z,94715.47
2023-12-01T08:29:38.310Z,94708.28
2023-12-01T08:34:41.203Z,94726.28
2023-12-01T08:39:45.267Z,94725.56
2023-12-01T08:44:49.601Z,94730.47
2023-12-01T08:49:55.393Z,94704.00
2023-12-01T08:55:00.044Z,94696.50
2023-12-01T09:00:04.579Z,94697.13
2023-12-01T09:05:10.525Z,94704.59
2023-12-01T09:10:13.483Z,94701.41
2023-12-01T09:15:18.094Z,94718.75
2023-12-01T09:20:21.347Z,94722.22
2023-12-01T09:25:25.094Z,94728.75
2023-12-01T09:30:30.514Z,94723.22
2023-12-01T09:35:54.796Z,94728.25
2023-12-01T09:40:56.513Z,94737.78
2023-12-01T09:46:00.962Z,94740.09
2023-12-01T09:51:05.213Z,94736.97
2023-12-01T09:56:11.440Z,94717.31
2023-12-01T10:01:16.918Z,94714.03
2023-12-01T10:06:20.264Z,94712.47
2023-12-01T10:11:26.885Z,94717.44
2023-12-01T10:16:35.980Z,94709.84
2023-12-01T10:21:43.585Z,94716.50
2023-12-01T10:26:47.284Z,94687.50
2023-12-01T10:31:51.749Z,94687.84
2023-12-01T10:36:55.043Z,94711.59
2023-12-01T10:42:03.680Z,94708.75
2023-12-01T10:47:13.009Z,94692.75
2023-12-01T10:52:17.439Z,94674.25
2023-12-01T10:57:29.382Z,94678.72
2023-12-01T11:02:39.382Z,94657.88
2023-12-01T11:07:56.470Z,94658.50
2023-12-01T11:13:10.887Z,94646.38
2023-12-01T11:18:15.212Z,94637.44
2023-12-01T11:23:26.272Z,94642.19
2023-12-01T11:28:41.973Z,94646.16
2023-12-01T11:33:49.204Z,94650.28
2023-12-01T11:39:25.202Z,94641.69
2023-12-01T11:44:30.947Z,94628.78
2023-12-01T11:49:36.690Z,94622.88
2023-12-01T11:54:39.843Z,94619.47
2023-12-01T11:59:42.794Z,94626.31
2023-12-01T12:04:48.918Z,94621.84
2023-12-01T12:09:52.028Z,94629.47
2023-12-01T12:14:56.728Z,94631.66
2023-12-01T12:20:09.259Z,94630.75
2023-12-01T12:25:17.992Z,94638.88
2023-12-01T12:30:21.099Z,94646.97
2023-12-01T12:35:26.216Z,94650.28
2023-12-01T12:40:34.592Z,94645.00
2023-12-01T12:45:37.623Z,94631.81
2023-12-01T12:50:42.757Z,94638.31
2023-12-01T12:55:47.060Z,94642.31
2023-12-01T13:00:49.982Z,94646.00
2023-12-01T13:05:54.275Z,94636.59
2023-12-01T13:10:57.152Z,94626.13
2023-12-01T13:16:00.099Z,94626.41
2023-12-01T13:21:05.695Z,94622.66
2023-12-01T13:26:09.135Z,94630.50
2023-12-01T13:31:12.158Z,94634.63
2023-12-01T13:36:16.409Z,94643.25
2023-12-01T13:41:19.432Z,94647.41
2023-12-01T13:46:22.329Z,94643.88
2023-12-01T13:51:26.886Z,94641.81
2023-12-01T13:56:30.389Z,94633.69
2023-12-01T14:01:33.364Z,94628.13
2023-12-01T14:06:37.646Z,94607.28
2023-12-01T14:11:40.629Z,94610.16
2023-12-01T14:16:43.556Z,94599.66
2023-12-01T14:21:47.878Z,94605.78
2023-12-01T14:26:50.812Z,94608.75
2023-12-01T14:31:54.417Z,94620.69
2023-12-01T14:37:00.141Z,94634.69
2023-12-01T14:42:03.287Z,94637.38
2023-12-01T14:47:06.402Z,94640.22
2023-12-01T14:52:10.631Z,94641.03
2023-12-01T14:57:13.568Z,94668.75
2023-12-01T15:02:16.500Z,94677.22
2023-12-01T15:07:20.698Z,94685.94
2023-12-01T15:12:25.781Z,94676.53
2023-12-01T15:17:28.912Z,94663.94
2023-12-01T15:22:33.106Z,94661.09
2023-12-01T15:27:36.575Z,94655.38
2023-12-01T15:32:39.438Z,94657.78
2023-12-01T15:37:43.932Z,94647.50
2023-12-01T15:42:46.793Z,94653.22
2023-12-01T15:47:49.764Z,94653.88
2023-12-01T15:52:57.309Z,94645.91
2023-12-01T15:58:00.215Z,94644.31
2023-12-01T16:03:03.678Z,94651.97
2023-12-01T16:08:08.225Z,94650.53
2023-12-01T16:13:11.167Z,94640.81
2023-12-01T16:18:14.259Z,94644.00
2023-12-01T16:23:18.633Z,94645.13
2023-12-01T16:28:24.293Z,94638.41
2023-12-01T16:33:28.501Z,94611.75
2023-12-01T16:38:32.776Z,94607.78
2023-12-01T16:43:35.645Z,94627.41
2023-12-01T16:48:38.589Z,94630.13
2023-12-01T16:53:44.640Z,94636.44
2023-12-01T16:58:47.601Z,94643.13
2023-12-01T17:03:50.931Z,94665.72
2023-12-01T17:08:58.319Z,94651.56
2023-12-01T17:14:03.494Z,94628.94
2023-12-01T17:19:06.563Z,94637.66
2023-12-01T17:24:11.376Z,94634.19
2023-12-01T17:29:18.920Z,94633.50
2023-12-01T17:34:22.491Z,94628.09
2023-12-01T17:39:26.766Z,94640.03
2023-12-01T17:44:29.676Z,94646.09
2023-12-01T17:49:32.614Z,94641.47
2023-12-01T17:54:38.788Z,94642.59
2023-12-01T17:59:42.062Z,94653.72
2023-12-01T18:04:45.513Z,94664.06
2023-12-01T18:09:50.087Z,94668.50
2023-12-01T18:14:53.466Z,94675.16
2023-12-01T18:19:56.511Z,94660.19
2023-12-01T18:25:00.718Z,94662.41
2023-12-01T18:30:05.020Z,94656.31
2023-12-01T18:35:09.014Z,94671.91
2023-12-01T18:40:14.251Z,94679.66
2023-12-01T18:45:17.309Z,94692.00
2023-12-01T18:50:20.456Z,94682.13
2023-12-01T18:55:25.255Z,94683.84
2023-12-01T19:00:28.287Z,94699.88
2023-12-01T19:05:31.889Z,94703.50
2023-12-01T19:10:36.342Z,94695.19
2023-12-01T19:15:39.245Z,94691.22
2023-12-01T19:20:42.760Z,94689.91
2023-12-01T19:25:46.932Z,94672.41
2023-12-01T19:30:49.761Z,94681.75
2023-12-01T19:35:52.700Z,94678.88
2023-12-01T19:40:56.972Z,94678.69
2023-12-01T19:46:00.920Z,94687.09
2023-12-01T19:51:03.983Z,94688.84
2023-12-01T19:56:12.773Z,94688.03
2023-12-01T20:01:15.656Z,94669.44
2023-12-01T20:06:18.633Z,94688.97
2023-12-01T20:11:22.869Z,94660.66
2023-12-01T20:16:26.720Z,94672.56
2023-12-01T20:21:32.274Z,94671.00
2023-12-01T20:26:39.622Z,94677.00
2023-12-01T20:31:43.932Z,94693.50
2023-12-01T20:36:46.828Z,94707.81
2023-12-01T20:41:51.130Z,94712.22
2023-12-01T20:46:56.957Z,94720.13
2023-12-01T20:52:03.834Z,94704.22
2023-12-01T20:57:08.302Z,94684.84
2023-12-01T21:02:11.136Z,94675.94
2023-12-01T21:07:14.440Z,94694.34
2023-12-01T21:12:18.794Z,94714.06
2023-12-01T21:17:22.412Z,94719.25
2023-12-01T21:22:25.839Z,94730.03
2023-12-01T21:27:31.994Z,94714.44
2023-12-01T21:32:37.905Z,94707.16
2023-12-01T21:37:43.121Z,94703.94
2023-12-01T21:42:47.388Z,94692.34
2023-12-01T21:47:51.178Z,94681.34
2023-12-01T21:52:54.069Z,94691.66
2023-12-01T21:57:59.620Z,94706.75
2023-12-01T22:03:05.336Z,94698.16
2023-12-01T22:08:08.825Z,94703.84
2023-12-01T22:13:13.027Z,94692.28
2023-12-01T22:18:15.928Z,94667.97
2023-12-01T22:23:19.185Z,94701.47
2023-12-01T22:28:25.111Z,94702.84
2023-12-01T22:33:28.018Z,94681.88
2023-12-01T22:38:30.938Z,94710.47
2023-12-01T22:43:35.172Z,94717.28
2023-12-01T22:48:38.217Z,94724.88
2023-12-01T22:53:41.419Z,94708.69
2023-12-01T22:58:45.627Z,94699.78
2023-12-01T23:03:50.152Z,94683.41
2023-12-01T23:08:56.015Z,94686.41
2023-12-01T23:14:00.989Z,94687.50
2023-12-01T23:19:04.357Z,94691.78
2023-12-01T23:24:09.416Z,94708.81
2023-12-01T23:29:14.100Z,94706.41
2023-12-01T23:34:17.287Z,94713.38
2023-12-01T23:39:21.001Z,94714.50
2023-12-01T23:44:25.247Z,94711.31
2023-12-01T23:49:28.206Z,94719.09
2023-12-01T23:54:31.369Z,94718.88
2023-12-01T23:59:35.641Z,94715.69
